MET'MAP v2.0
soon released !

Expected late october,
this new version will be
more efficient, smarter,
and hosted on a brand new
server x3 powerfull...
...and still free !


Not compatible ?
Try the mobile version !

LOG IN : | Subscribe | Disclaimer | Who is Orbifly ? |
ICAO code :

TAF - LGZA Dionysios Solomos Airport - 19 Feb 2020 20:28 UTC - Data Source NOAA   


- Airport Elevation : 15 ft
- IATA code : ZTH
- No reported NOTAMs.


LGZA - Dionysios Solomos Airport

Latest METAR recorded : 2015/08/11 07:50 LGZA 110750Z 04004KT 9999 FEW020 30/22 Q1012
TAF TAF LGZA
Valid from the 19 at 18:00 until the 20 at 03:00 UTC


191700Z 1918/2003 30012KT 9999 SCT020 BKN070
TEMPO 1921/2003 5000 RA SCT018 BKN070
PROB30 2001/2003 3000 TSRA SCT015 BKN030

Source NOAA


MET'MAP, your aeronautical weather chart ! - Copyright ORBIFLY December 2007

Programming & Development : Alexandra Zaïnal
Co-Developer : Marc-Olivier Méhu
Technical & hardware support : Manuel Goepfert
Concept & Financing : Baudouin d'Aumeries